createdAt,value
2022-08-26T00:00:02.184Z,19.26
2022-08-26T00:03:22.020Z,19.17
2022-08-26T00:06:42.642Z,19.11
2022-08-26T00:09:57.638Z,19.09
2022-08-26T00:13:15.170Z,19.06
2022-08-26T00:16:32.237Z,19.04
2022-08-26T00:19:48.767Z,19.02
2022-08-26T00:23:07.925Z,19.01
2022-08-26T00:26:24.699Z,18.95
2022-08-26T00:29:43.276Z,18.81
2022-08-26T00:32:59.805Z,18.86
2022-08-26T00:39:31.811Z,18.87
2022-08-26T00:42:48.480Z,19.01
2022-08-26T00:46:09.474Z,19.15
2022-08-26T00:52:42.404Z,19.35
2022-08-26T00:56:05.310Z,19.43
2022-08-26T00:59:25.006Z,19.48
2022-08-26T01:02:46.845Z,19.38
2022-08-26T01:06:04.518Z,19.25
2022-08-26T01:09:22.995Z,19.21
2022-08-26T01:12:43.457Z,19.07
2022-08-26T01:16:04.992Z,18.98
2022-08-26T01:19:26.384Z,18.93
2022-08-26T01:22:52.363Z,18.82
2022-08-26T01:26:19.576Z,18.68
2022-08-26T01:29:33.786Z,18.65
2022-08-26T01:32:51.584Z,18.62
2022-08-26T01:36:08.828Z,18.58
2022-08-26T01:39:26.037Z,18.52
2022-08-26T01:42:42.889Z,18.42
2022-08-26T01:46:00.434Z,18.38
2022-08-26T01:49:19.257Z,18.31
2022-08-26T01:52:38.633Z,18.28
2022-08-26T01:55:58.832Z,18.30
2022-08-26T01:59:18.236Z,18.26
2022-08-26T02:02:36.951Z,18.25
2022-08-26T02:05:55.558Z,18.21
2022-08-26T02:09:15.554Z,18.16
2022-08-26T02:12:33.110Z,18.07
2022-08-26T02:15:53.026Z,18.03
2022-08-26T02:19:10.140Z,18.03
2022-08-26T02:25:52.575Z,17.93
2022-08-26T02:29:15.187Z,17.92
2022-08-26T02:32:31.517Z,17.87
2022-08-26T02:35:48.867Z,17.81
2022-08-26T02:39:05.293Z,17.81
2022-08-26T02:42:22.337Z,17.77
2022-08-26T02:45:38.941Z,17.72
2022-08-26T02:48:55.292Z,17.71
2022-08-26T02:52:11.671Z,17.67
2022-08-26T02:55:28.043Z,17.66
2022-08-26T02:58:44.629Z,17.65
2022-08-26T03:02:01.174Z,17.60
2022-08-26T03:05:20.590Z,17.54
2022-08-26T03:08:38.595Z,17.53
2022-08-26T03:11:56.186Z,17.52
2022-08-26T03:15:17.469Z,17.50
2022-08-26T03:18:32.416Z,17.49
2022-08-26T03:21:50.236Z,17.44
2022-08-26T03:25:09.621Z,17.39
2022-08-26T03:28:27.153Z,17.35
2022-08-26T03:31:43.975Z,17.33
2022-08-26T03:35:02.213Z,17.24
2022-08-26T03:38:19.177Z,17.26
2022-08-26T03:41:35.558Z,17.25
2022-08-26T03:44:52.320Z,17.23
2022-08-26T03:48:09.648Z,17.17
2022-08-26T03:51:27.802Z,17.17
2022-08-26T03:54:44.506Z,17.17
2022-08-26T03:58:02.869Z,17.12
2022-08-26T04:01:20.894Z,17.08
2022-08-26T04:04:38.190Z,17.03
2022-08-26T04:07:55.313Z,17.08
2022-08-26T04:11:12.255Z,17.10
2022-08-26T04:14:32.634Z,17.09
2022-08-26T04:17:49.237Z,17.12
2022-08-26T04:24:24.178Z,17.16
2022-08-26T04:27:40.821Z,17.23
2022-08-26T04:30:56.974Z,17.25
2022-08-26T04:34:14.302Z,17.28
2022-08-26T04:37:32.082Z,17.30
2022-08-26T04:40:52.653Z,17.36
2022-08-26T04:44:11.345Z,17.40
2022-08-26T04:47:32.098Z,17.41
2022-08-26T04:50:49.369Z,17.46
2022-08-26T04:54:04.476Z,17.52
2022-08-26T04:57:23.667Z,17.60
2022-08-26T05:00:39.826Z,17.69
2022-08-26T05:03:57.276Z,17.80
2022-08-26T05:07:14.603Z,17.83
2022-08-26T05:10:34.868Z,17.91
2022-08-26T05:13:51.266Z,17.98
2022-08-26T05:17:08.148Z,18.03
2022-08-26T05:20:26.224Z,18.09
2022-08-26T05:23:44.623Z,18.17
2022-08-26T05:27:01.238Z,18.23
2022-08-26T05:30:20.602Z,18.23
2022-08-26T05:33:37.199Z,18.35
2022-08-26T05:36:55.382Z,18.44
2022-08-26T05:40:15.927Z,18.55
2022-08-26T05:43:32.243Z,18.62
2022-08-26T05:46:51.250Z,18.61
2022-08-26T05:56:39.234Z,18.77
2022-08-26T05:59:55.339Z,18.83
2022-08-26T06:03:13.127Z,18.89
2022-08-26T06:06:33.640Z,18.99
2022-08-26T06:09:50.681Z,19.06
2022-08-26T06:13:11.647Z,19.12
2022-08-26T06:16:28.497Z,19.15
2022-08-26T06:19:47.455Z,19.26
2022-08-26T06:23:17.630Z,19.39
2022-08-26T06:26:34.120Z,19.56
2022-08-26T06:29:52.420Z,19.71
2022-08-26T06:33:08.687Z,19.93
2022-08-26T06:36:31.695Z,20.12
2022-08-26T06:39:48.789Z,20.24
2022-08-26T06:43:07.137Z,20.32
2022-08-26T06:46:27.528Z,20.53
2022-08-26T06:49:44.242Z,20.72
2022-08-26T06:53:00.847Z,20.88
2022-08-26T06:56:20.278Z,21.09
2022-08-26T06:59:36.782Z,21.38
2022-08-26T07:02:53.116Z,21.45
2022-08-26T07:06:13.983Z,21.52
2022-08-26T07:09:33.984Z,21.60
2022-08-26T07:12:50.466Z,21.75
2022-08-26T07:16:18.530Z,21.82
2022-08-26T07:19:40.016Z,21.90
2022-08-26T07:23:00.179Z,22.08
2022-08-26T07:26:23.363Z,22.47
2022-08-26T07:29:43.179Z,22.85
2022-08-26T07:33:00.873Z,23.37
2022-08-26T07:36:20.109Z,23.84
2022-08-26T07:39:37.369Z,24.07
2022-08-26T07:42:55.369Z,24.67
2022-08-26T07:46:16.552Z,25.20
2022-08-26T07:49:34.401Z,25.58
2022-08-26T07:56:06.249Z,26.28
2022-08-26T07:59:24.320Z,26.55
2022-08-26T08:02:40.653Z,26.87
2022-08-26T08:09:12.324Z,27.31
2022-08-26T08:12:31.129Z,27.57
2022-08-26T08:15:48.426Z,27.76
2022-08-26T08:19:06.911Z,27.91
2022-08-26T08:22:28.020Z,28.00
2022-08-26T08:25:44.588Z,28.00
2022-08-26T08:29:03.549Z,28.35
2022-08-26T08:32:20.515Z,28.65
2022-08-26T08:38:55.188Z,28.83
2022-08-26T08:42:47.540Z,28.84
2022-08-26T08:46:09.705Z,29.05
2022-08-26T08:49:27.192Z,29.16
2022-08-26T08:52:47.621Z,29.20
2022-08-26T08:56:08.050Z,29.26
2022-08-26T08:59:28.944Z,29.50
2022-08-26T09:02:51.279Z,29.44
2022-08-26T09:06:11.360Z,29.15
2022-08-26T09:09:33.606Z,29.73
2022-08-26T09:12:51.032Z,30.00
2022-08-26T09:16:15.694Z,29.92
2022-08-26T09:19:38.554Z,29.89
2022-08-26T09:22:56.730Z,29.58
2022-08-26T09:26:23.528Z,29.36
2022-08-26T09:29:46.277Z,29.40
2022-08-26T09:33:12.647Z,29.42
2022-08-26T09:36:41.639Z,29.38
2022-08-26T09:39:58.159Z,29.59
2022-08-26T09:43:24.539Z,29.49
2022-08-26T09:46:41.654Z,29.54
2022-08-26T09:50:11.004Z,29.48
2022-08-26T09:56:47.235Z,29.48
2022-08-26T10:00:04.060Z,29.48
2022-08-26T10:03:31.592Z,29.62
2022-08-26T10:10:04.706Z,29.63
2022-08-26T10:13:25.709Z,29.67
2022-08-26T10:16:50.585Z,29.74
2022-08-26T10:20:23.346Z,29.76
2022-08-26T10:23:34.092Z,29.69
2022-08-26T10:26:55.226Z,29.73
2022-08-26T10:30:19.942Z,29.56
2022-08-26T10:33:36.359Z,29.43
2022-08-26T10:37:15.994Z,29.45
2022-08-26T10:40:24.321Z,29.51
2022-08-26T10:43:45.434Z,29.54
2022-08-26T10:47:06.995Z,29.77
2022-08-26T10:50:28.164Z,29.85
2022-08-26T10:53:53.561Z,29.76
2022-08-26T10:57:16.628Z,29.56
2022-08-26T11:00:51.740Z,29.44
2022-08-26T11:04:15.804Z,29.49
2022-08-26T11:07:51.485Z,29.56
2022-08-26T11:11:09.436Z,29.37
2022-08-26T11:14:56.230Z,29.26
2022-08-26T11:18:10.661Z,29.19
2022-08-26T11:22:10.946Z,29.23
2022-08-26T11:25:31.033Z,29.23
2022-08-26T11:28:51.252Z,29.32
2022-08-26T11:32:08.930Z,29.39
2022-08-26T11:35:55.740Z,29.35
2022-08-26T11:39:24.953Z,29.15
2022-08-26T11:42:47.334Z,29.06
2022-08-26T11:46:13.184Z,29.09
2022-08-26T11:49:30.229Z,29.08
2022-08-26T11:52:46.786Z,29.01
2022-08-26T11:56:06.391Z,28.99
2022-08-26T11:59:27.707Z,28.93
2022-08-26T12:02:47.209Z,28.95
2022-08-26T12:06:04.261Z,28.92
2022-08-26T12:09:27.630Z,28.94
2022-08-26T12:12:46.027Z,28.89
2022-08-26T12:16:06.773Z,28.84
2022-08-26T12:19:35.613Z,28.78
2022-08-26T12:26:18.970Z,28.84
2022-08-26T12:29:36.293Z,28.84
2022-08-26T12:32:59.057Z,28.82
2022-08-26T12:39:39.065Z,28.84
2022-08-26T12:42:57.423Z,28.82
2022-08-26T12:46:16.707Z,28.78
2022-08-26T12:49:32.924Z,28.80
2022-08-26T12:53:00.006Z,28.80
2022-08-26T12:56:31.037Z,28.80
2022-08-26T12:59:47.391Z,28.85
2022-08-26T13:03:04.442Z,28.92
2022-08-26T13:06:32.157Z,28.84
2022-08-26T13:09:48.391Z,28.83
2022-08-26T13:13:04.578Z,28.81
2022-08-26T13:16:20.928Z,28.79
2022-08-26T13:19:37.298Z,28.79
2022-08-26T13:22:59.133Z,28.83
2022-08-26T13:26:16.077Z,28.81
2022-08-26T13:29:32.386Z,28.79
2022-08-26T13:32:49.137Z,28.77
2022-08-26T13:36:05.578Z,28.77
2022-08-26T13:39:22.488Z,28.77
2022-08-26T13:42:38.704Z,28.82
2022-08-26T13:45:56.818Z,28.83
2022-08-26T13:49:13.208Z,28.86
2022-08-26T13:52:30.953Z,28.82
2022-08-26T13:55:48.721Z,28.82
2022-08-26T13:59:05.288Z,28.83
2022-08-26T14:02:23.323Z,28.85
2022-08-26T14:05:40.052Z,28.83
2022-08-26T14:08:56.794Z,28.80
2022-08-26T14:12:14.025Z,28.77
2022-08-26T14:15:30.573Z,28.79
2022-08-26T14:18:51.087Z,28.76
2022-08-26T14:22:09.174Z,28.75
2022-08-26T14:25:26.123Z,28.78
2022-08-26T14:28:42.599Z,28.83
2022-08-26T14:31:59.814Z,28.80
2022-08-26T14:35:19.600Z,28.80
2022-08-26T14:38:36.232Z,28.80
2022-08-26T14:41:57.968Z,28.78
2022-08-26T14:45:18.688Z,28.76
2022-08-26T14:48:35.464Z,28.74
2022-08-26T14:51:52.124Z,28.73
2022-08-26T14:55:08.354Z,28.72
2022-08-26T14:58:24.592Z,28.72
2022-08-26T15:01:43.129Z,28.77
2022-08-26T15:04:59.490Z,28.75
2022-08-26T15:08:29.481Z,28.71
2022-08-26T15:11:47.784Z,28.67
2022-08-26T15:15:09.746Z,28.65
2022-08-26T15:18:26.103Z,28.64
2022-08-26T15:21:46.237Z,28.63
2022-08-26T15:25:04.747Z,28.62
2022-08-26T15:28:21.043Z,28.60
2022-08-26T15:31:40.608Z,28.57
2022-08-26T15:34:57.216Z,28.60
2022-08-26T15:38:14.415Z,28.55
2022-08-26T15:41:31.162Z,28.53
2022-08-26T15:44:53.305Z,28.52
2022-08-26T15:48:10.070Z,28.49
2022-08-26T15:51:45.300Z,28.46
2022-08-26T15:54:56.159Z,28.42
2022-08-26T15:58:12.406Z,28.37
2022-08-26T16:01:30.064Z,28.33
2022-08-26T16:04:49.785Z,28.31
2022-08-26T16:08:07.464Z,28.25
2022-08-26T16:11:24.195Z,28.23
2022-08-26T16:14:43.496Z,28.22
2022-08-26T16:17:59.589Z,28.18
2022-08-26T16:21:17.095Z,28.15
2022-08-26T16:24:33.215Z,28.12
2022-08-26T16:27:49.662Z,28.07
2022-08-26T16:31:10.304Z,28.01
2022-08-26T16:34:26.660Z,27.96
2022-08-26T16:41:05.317Z,27.82
2022-08-26T16:44:23.076Z,27.76
2022-08-26T16:47:42.577Z,27.68
2022-08-26T16:51:02.529Z,27.61
2022-08-26T16:54:19.083Z,27.56
2022-08-26T16:57:36.123Z,27.49
2022-08-26T17:00:53.302Z,27.46
2022-08-26T17:04:10.057Z,27.41
2022-08-26T17:07:27.387Z,27.36
2022-08-26T17:14:00.068Z,27.21
2022-08-26T17:17:16.638Z,27.14
2022-08-26T17:20:34.467Z,27.08
2022-08-26T17:27:05.778Z,26.87
2022-08-26T17:30:28.013Z,26.79
2022-08-26T17:33:48.840Z,26.70
2022-08-26T17:37:05.414Z,26.65
2022-08-26T17:40:26.674Z,26.60
2022-08-26T17:43:44.346Z,26.54
2022-08-26T17:47:02.141Z,26.45
2022-08-26T17:50:24.007Z,26.35
2022-08-26T17:53:42.833Z,26.23
2022-08-26T17:57:00.312Z,26.13
2022-08-26T18:00:23.764Z,26.08
2022-08-26T18:03:42.227Z,25.99
2022-08-26T18:10:22.690Z,25.81
2022-08-26T18:13:47.619Z,25.74
2022-08-26T18:17:00.163Z,25.70
2022-08-26T18:20:21.612Z,25.66
2022-08-26T18:23:48.240Z,25.60
2022-08-26T18:27:36.329Z,25.53
2022-08-26T18:31:20.168Z,25.44
2022-08-26T18:34:55.843Z,25.35
2022-08-26T18:38:50.383Z,25.28
2022-08-26T18:46:34.670Z,25.08
2022-08-26T18:50:05.378Z,24.72
2022-08-26T18:53:32.023Z,24.18
2022-08-26T18:56:51.830Z,23.71
2022-08-26T19:00:12.072Z,23.40
2022-08-26T19:03:29.570Z,23.08
2022-08-26T19:11:41.728Z,22.45
2022-08-26T19:15:06.542Z,22.24
2022-08-26T19:18:29.966Z,22.04
2022-08-26T19:27:36.377Z,21.70
2022-08-26T19:30:55.946Z,21.55
2022-08-26T19:34:14.793Z,21.42
2022-08-26T19:40:54.114Z,21.21
2022-08-26T19:44:17.069Z,21.15
2022-08-26T19:47:37.938Z,21.03
2022-08-26T19:51:51.979Z,20.89
2022-08-26T19:55:29.782Z,20.84
2022-08-26T19:58:48.166Z,20.81
2022-08-26T20:02:09.979Z,20.73
2022-08-26T20:05:36.201Z,20.62
2022-08-26T20:08:56.427Z,20.57
2022-08-26T20:12:26.988Z,20.51
2022-08-26T20:15:46.193Z,20.43
2022-08-26T20:19:17.793Z,20.34
2022-08-26T20:22:34.688Z,20.36
2022-08-26T20:25:51.047Z,20.39
2022-08-26T20:29:08.024Z,20.32
2022-08-26T20:32:24.254Z,20.30
2022-08-26T20:35:40.526Z,20.31
2022-08-26T20:38:57.438Z,20.24
2022-08-26T20:42:20.218Z,20.19
2022-08-26T20:45:32.419Z,20.16
2022-08-26T20:48:49.023Z,20.11
2022-08-26T20:52:06.380Z,20.00
2022-08-26T20:55:22.944Z,19.95
2022-08-26T20:58:40.007Z,19.90
2022-08-26T21:01:56.511Z,19.84
2022-08-26T21:05:14.887Z,19.76
2022-08-26T21:11:47.962Z,19.68
2022-08-26T21:15:04.578Z,19.65
2022-08-26T21:18:20.990Z,19.56
2022-08-26T21:21:37.361Z,19.51
2022-08-26T21:24:54.087Z,19.49
2022-08-26T21:28:11.286Z,19.47
2022-08-26T21:31:32.689Z,19.45
2022-08-26T21:34:49.109Z,19.40
2022-08-26T21:38:06.089Z,19.34
2022-08-26T21:41:26.014Z,19.34
2022-08-26T21:44:42.310Z,19.29
2022-08-26T21:47:58.724Z,19.24
2022-08-26T21:51:16.647Z,19.19
2022-08-26T21:57:48.210Z,19.17
2022-08-26T22:01:04.683Z,19.17
2022-08-26T22:04:22.553Z,19.14
2022-08-26T22:10:55.861Z,18.99
2022-08-26T22:14:12.866Z,19.00
2022-08-26T22:17:30.675Z,18.96
2022-08-26T22:20:47.330Z,18.96
2022-08-26T22:27:19.935Z,19.16
2022-08-26T22:30:36.488Z,19.26
2022-08-26T22:33:53.604Z,19.39
2022-08-26T22:37:09.923Z,19.52
2022-08-26T22:43:42.470Z,19.48
2022-08-26T22:47:00.505Z,19.38
2022-08-26T22:50:18.446Z,19.37
2022-08-26T22:53:35.919Z,19.35
2022-08-26T22:56:54.116Z,19.38
2022-08-26T23:00:13.705Z,19.33
2022-08-26T23:03:30.172Z,19.18
2022-08-26T23:06:50.400Z,19.06
2022-08-26T23:10:06.623Z,18.96
2022-08-26T23:13:24.021Z,18.84
2022-08-26T23:16:44.493Z,18.73
2022-08-26T23:20:00.881Z,18.65
2022-08-26T23:23:18.155Z,18.58
2022-08-26T23:26:34.833Z,18.55
2022-08-26T23:29:51.014Z,18.48
2022-08-26T23:33:08.704Z,18.40
2022-08-26T23:36:26.113Z,18.30
2022-08-26T23:39:43.869Z,18.21
2022-08-26T23:43:01.032Z,18.18
2022-08-26T23:46:17.603Z,18.12
2022-08-26T23:49:35.394Z,17.98
2022-08-26T23:53:06.017Z,17.98
2022-08-26T23:56:25.227Z,17.99
2022-08-26T23:59:44.488Z,17.95
